sensor_id;sensor_type;location;lat;lon;timestamp;temperature;humidity
23114;DHT22;11726;50.122;8.832;2023-10-13T00:02:05;16.20;99.90
23114;DHT22;11726;50.122;8.832;2023-10-13T00:04:32;16.10;99.90
23114;DHT22;11726;50.122;8.832;2023-10-13T00:07:02;16.20;99.90
23114;DHT22;11726;50.122;8.832;2023-10-13T00:09:31;16.20;99.90
23114;DHT22;11726;50.122;8.832;2023-10-13T00:12:08;16.20;99.90
23114;DHT22;11726;50.122;8.832;2023-10-13T00:14:40;16.20;99.90
23114;DHT22;11726;50.122;8.832;2023-10-13T00:17:08;16.10;99.90
23114;DHT22;11726;50.122;8.832;2023-10-13T00:19:38;16.10;99.90
23114;DHT22;11726;50.122;8.832;2023-10-13T00:22:11;16.20;99.90
23114;DHT22;11726;50.122;8.832;2023-10-13T00:24:47;16.10;99.90
23114;DHT22;11726;50.122;8.832;2023-10-13T00:27:20;16.10;99.90
23114;DHT22;11726;50.122;8.832;2023-10-13T00:30:04;16.10;99.90
23114;DHT22;11726;50.122;8.832;2023-10-13T00:32:45;16.10;99.90
23114;DHT22;11726;50.122;8.832;2023-10-13T00:35:13;16.10;99.90
23114;DHT22;11726;50.122;8.832;2023-10-13T00:37:52;16.10;99.90
23114;DHT22;11726;50.122;8.832;2023-10-13T00:40:22;16.10;99.90
23114;DHT22;11726;50.122;8.832;2023-10-13T00:43:08;16.10;99.90
23114;DHT22;11726;50.122;8.832;2023-10-13T00:45:52;16.10;99.90
23114;DHT22;11726;50.122;8.832;2023-10-13T00:48:28;16.10;99.90
23114;DHT22;11726;50.122;8.832;2023-10-13T00:50:57;16.10;99.90
23114;DHT22;11726;50.122;8.832;2023-10-13T00:53:25;16.10;99.90
23114;DHT22;11726;50.122;8.832;2023-10-13T00:55:52;16.10;99.90
23114;DHT22;11726;50.122;8.832;2023-10-13T00:58:23;16.10;99.90
23114;DHT22;11726;50.122;8.832;2023-10-13T01:00:51;16.10;99.90
23114;DHT22;11726;50.122;8.832;2023-10-13T01:03:38;16.10;99.90
23114;DHT22;11726;50.122;8.832;2023-10-13T01:06:06;16.10;99.90
23114;DHT22;11726;50.122;8.832;2023-10-13T01:08:33;16.20;99.90
23114;DHT22;11726;50.122;8.832;2023-10-13T01:11:05;16.20;99.90
23114;DHT22;11726;50.122;8.832;2023-10-13T01:13:34;16.20;99.90
23114;DHT22;11726;50.122;8.832;2023-10-13T01:16:03;16.20;99.90
23114;DHT22;11726;50.122;8.832;2023-10-13T01:18:34;16.20;99.90
23114;DHT22;11726;50.122;8.832;2023-10-13T01:21:15;16.20;99.90
23114;DHT22;11726;50.122;8.832;2023-10-13T01:23:45;16.30;99.90
23114;DHT22;11726;50.122;8.832;2023-10-13T01:26:14;16.20;99.90
23114;DHT22;11726;50.122;8.832;2023-10-13T01:28:47;16.20;99.90
23114;DHT22;11726;50.122;8.832;2023-10-13T01:31:17;16.20;99.90
23114;DHT22;11726;50.122;8.832;2023-10-13T01:33:57;16.30;99.90
23114;DHT22;11726;50.122;8.832;2023-10-13T01:36:27;16.30;99.90
23114;DHT22;11726;50.122;8.832;2023-10-13T01:38:54;16.30;99.90
23114;DHT22;11726;50.122;8.832;2023-10-13T01:41:21;16.30;99.90
23114;DHT22;11726;50.122;8.832;2023-10-13T01:43:49;16.30;99.90
23114;DHT22;11726;50.122;8.832;2023-10-13T01:46:15;16.30;99.90
23114;DHT22;11726;50.122;8.832;2023-10-13T01:48:46;16.30;99.90
23114;DHT22;11726;50.122;8.832;2023-10-13T01:51:13;16.30;99.90
23114;DHT22;11726;50.122;8.832;2023-10-13T01:53:40;16.30;99.90
23114;DHT22;11726;50.122;8.832;2023-10-13T01:56:10;16.30;99.90
23114;DHT22;11726;50.122;8.832;2023-10-13T01:58:40;16.30;99.90
23114;DHT22;11726;50.122;8.832;2023-10-13T02:01:13;16.30;99.90
23114;DHT22;11726;50.122;8.832;2023-10-13T02:03:47;16.30;99.90
23114;DHT22;11726;50.122;8.832;2023-10-13T02:06:15;16.30;99.90
23114;DHT22;11726;50.122;8.832;2023-10-13T02:08:50;16.30;99.90
23114;DHT22;11726;50.122;8.832;2023-10-13T02:11:23;16.30;99.90
23114;DHT22;11726;50.122;8.832;2023-10-13T02:13:50;16.30;99.90
23114;DHT22;11726;50.122;8.832;2023-10-13T02:16:20;16.20;99.90
23114;DHT22;11726;50.122;8.832;2023-10-13T02:18:48;16.20;99.90
23114;DHT22;11726;50.122;8.832;2023-10-13T02:21:18;16.20;99.90
23114;DHT22;11726;50.122;8.832;2023-10-13T02:23:45;16.30;99.90
23114;DHT22;11726;50.122;8.832;2023-10-13T02:26:13;16.30;99.90
23114;DHT22;11726;50.122;8.832;2023-10-13T02:28:42;16.30;99.90
23114;DHT22;11726;50.122;8.832;2023-10-13T02:31:17;16.20;99.90
23114;DHT22;11726;50.122;8.832;2023-10-13T02:33:46;16.30;99.90
23114;DHT22;11726;50.122;8.832;2023-10-13T02:36:12;16.20;99.90
23114;DHT22;11726;50.122;8.832;2023-10-13T02:38:39;16.30;99.90
23114;DHT22;11726;50.122;8.832;2023-10-13T02:41:18;16.30;99.90
23114;DHT22;11726;50.122;8.832;2023-10-13T02:43:55;16.30;99.90
23114;DHT22;11726;50.122;8.832;2023-10-13T02:46:23;16.30;99.90
23114;DHT22;11726;50.122;8.832;2023-10-13T02:48:55;16.30;99.90
23114;DHT22;11726;50.122;8.832;2023-10-13T02:51:24;16.30;99.90
23114;DHT22;11726;50.122;8.832;2023-10-13T02:54:03;16.30;99.90
23114;DHT22;11726;50.122;8.832;2023-10-13T02:56:36;16.30;99.90
23114;DHT22;11726;50.122;8.832;2023-10-13T02:59:04;16.30;99.90
23114;DHT22;11726;50.122;8.832;2023-10-13T03:01:35;16.30;99.90
23114;DHT22;11726;50.122;8.832;2023-10-13T03:04:03;16.40;99.90
23114;DHT22;11726;50.122;8.832;2023-10-13T03:06:36;16.30;99.90
23114;DHT22;11726;50.122;8.832;2023-10-13T03:09:10;16.40;99.90
23114;DHT22;11726;50.122;8.832;2023-10-13T03:11:41;16.40;99.90
23114;DHT22;11726;50.122;8.832;2023-10-13T03:14:19;16.30;99.90
23114;DHT22;11726;50.122;8.832;2023-10-13T03:17:00;16.40;99.90
23114;DHT22;11726;50.122;8.832;2023-10-13T03:19:36;16.40;99.90
23114;DHT22;11726;50.122;8.832;2023-10-13T03:22:09;16.40;99.90
23114;DHT22;11726;50.122;8.832;2023-10-13T03:24:39;16.40;99.90
23114;DHT22;11726;50.122;8.832;2023-10-13T03:27:21;16.40;99.90
23114;DHT22;11726;50.122;8.832;2023-10-13T03:29:51;16.30;99.90
23114;DHT22;11726;50.122;8.832;2023-10-13T03:32:21;16.30;99.90
23114;DHT22;11726;50.122;8.832;2023-10-13T03:34:48;16.30;99.90
23114;DHT22;11726;50.122;8.832;2023-10-13T03:37:39;16.30;99.90
23114;DHT22;11726;50.122;8.832;2023-10-13T03:40:09;16.30;99.90
23114;DHT22;11726;50.122;8.832;2023-10-13T03:42:57;16.30;99.90
23114;DHT22;11726;50.122;8.832;2023-10-13T03:45:41;16.30;99.90
23114;DHT22;11726;50.122;8.832;2023-10-13T03:48:15;16.20;99.90
23114;DHT22;11726;50.122;8.832;2023-10-13T03:50:59;16.20;99.90
23114;DHT22;11726;50.122;8.832;2023-10-13T03:53:42;16.20;99.90
23114;DHT22;11726;50.122;8.832;2023-10-13T03:56:23;16.10;99.90
23114;DHT22;11726;50.122;8.832;2023-10-13T03:58:59;16.10;99.90
23114;DHT22;11726;50.122;8.832;2023-10-13T04:01:36;16.10;99.90
23114;DHT22;11726;50.122;8.832;2023-10-13T04:04:19;16.10;99.90
23114;DHT22;11726;50.122;8.832;2023-10-13T04:07:02;16.10;99.90
23114;DHT22;11726;50.122;8.832;2023-10-13T04:09:32;16.10;99.90
23114;DHT22;11726;50.122;8.832;2023-10-13T04:12:08;16.10;99.90
23114;DHT22;11726;50.122;8.832;2023-10-13T04:14:44;16.10;99.90
23114;DHT22;11726;50.122;8.832;2023-10-13T04:17:11;16.10;99.90
23114;DHT22;11726;50.122;8.832;2023-10-13T04:19:44;16.10;99.90
23114;DHT22;11726;50.122;8.832;2023-10-13T04:22:29;16.20;99.90
23114;DHT22;11726;50.122;8.832;2023-10-13T04:25:24;16.20;99.90
23114;DHT22;11726;50.122;8.832;2023-10-13T04:28:14;16.20;99.90
23114;DHT22;11726;50.122;8.832;2023-10-13T04:30:45;16.20;99.90
23114;DHT22;11726;50.122;8.832;2023-10-13T04:33:33;16.20;99.90
23114;DHT22;11726;50.122;8.832;2023-10-13T04:36:13;16.20;99.90
23114;DHT22;11726;50.122;8.832;2023-10-13T04:38:44;16.10;99.90
23114;DHT22;11726;50.122;8.832;2023-10-13T04:44:17;16.10;99.90
23114;DHT22;11726;50.122;8.832;2023-10-13T04:46:57;16.10;99.90
23114;DHT22;11726;50.122;8.832;2023-10-13T04:49:31;16.10;99.90
23114;DHT22;11726;50.122;8.832;2023-10-13T04:52:03;16.10;99.90
23114;DHT22;11726;50.122;8.832;2023-10-13T04:57:13;16.10;99.90
23114;DHT22;11726;50.122;8.832;2023-10-13T04:59:50;16.10;99.90
23114;DHT22;11726;50.122;8.832;2023-10-13T05:02:37;16.20;99.90
23114;DHT22;11726;50.122;8.832;2023-10-13T05:05:11;16.10;99.90
23114;DHT22;11726;50.122;8.832;2023-10-13T05:08:01;16.20;99.90
23114;DHT22;11726;50.122;8.832;2023-10-13T05:10:47;16.20;99.90
23114;DHT22;11726;50.122;8.832;2023-10-13T05:13:32;16.10;99.90
23114;DHT22;11726;50.122;8.832;2023-10-13T05:16:17;16.10;99.90
23114;DHT22;11726;50.122;8.832;2023-10-13T05:19:03;16.20;99.90
23114;DHT22;11726;50.122;8.832;2023-10-13T05:21:49;16.20;99.90
23114;DHT22;11726;50.122;8.832;2023-10-13T05:24:34;16.10;99.90
23114;DHT22;11726;50.122;8.832;2023-10-13T05:27:20;16.20;99.90
23114;DHT22;11726;50.122;8.832;2023-10-13T05:30:05;16.10;99.90
23114;DHT22;11726;50.122;8.832;2023-10-13T05:32:51;16.10;99.90
23114;DHT22;11726;50.122;8.832;2023-10-13T05:35:36;16.10;99.90
23114;DHT22;11726;50.122;8.832;2023-10-13T05:38:22;16.10;99.90
23114;DHT22;11726;50.122;8.832;2023-10-13T05:41:07;16.10;99.90
23114;DHT22;11726;50.122;8.832;2023-10-13T05:43:53;16.10;99.90
23114;DHT22;11726;50.122;8.832;2023-10-13T05:46:38;16.10;99.90
23114;DHT22;11726;50.122;8.832;2023-10-13T05:49:08;16.10;99.90
23114;DHT22;11726;50.122;8.832;2023-10-13T05:51:38;16.10;99.90
23114;DHT22;11726;50.122;8.832;2023-10-13T05:54:23;16.10;99.90
23114;DHT22;11726;50.122;8.832;2023-10-13T05:57:08;16.10;99.90
23114;DHT22;11726;50.122;8.832;2023-10-13T05:59:54;16.10;99.90
23114;DHT22;11726;50.122;8.832;2023-10-13T06:02:39;16.10;99.90
23114;DHT22;11726;50.122;8.832;2023-10-13T06:05:24;16.10;99.90
23114;DHT22;11726;50.122;8.832;2023-10-13T06:08:10;16.10;99.90
23114;DHT22;11726;50.122;8.832;2023-10-13T06:11:02;16.10;99.90
23114;DHT22;11726;50.122;8.832;2023-10-13T06:13:48;16.10;99.90
23114;DHT22;11726;50.122;8.832;2023-10-13T06:16:33;16.10;99.90
23114;DHT22;11726;50.122;8.832;2023-10-13T06:19:19;16.10;99.90
23114;DHT22;11726;50.122;8.832;2023-10-13T06:22:04;16.10;99.90
23114;DHT22;11726;50.122;8.832;2023-10-13T06:24:49;16.20;99.90
23114;DHT22;11726;50.122;8.832;2023-10-13T06:27:34;16.20;99.90
23114;DHT22;11726;50.122;8.832;2023-10-13T06:30:20;16.20;99.90
23114;DHT22;11726;50.122;8.832;2023-10-13T06:32:46;16.30;99.90
23114;DHT22;11726;50.122;8.832;2023-10-13T06:35:14;16.30;99.90
23114;DHT22;11726;50.122;8.832;2023-10-13T06:37:51;16.30;99.90
23114;DHT22;11726;50.122;8.832;2023-10-13T06:40:18;16.30;99.90
23114;DHT22;11726;50.122;8.832;2023-10-13T06:42:48;16.40;99.90
23114;DHT22;11726;50.122;8.832;2023-10-13T06:45:14;16.40;99.90
23114;DHT22;11726;50.122;8.832;2023-10-13T06:47:44;16.50;99.90
23114;DHT22;11726;50.122;8.832;2023-10-13T06:50:12;16.50;99.90
23114;DHT22;11726;50.122;8.832;2023-10-13T06:52:43;16.50;99.90
23114;DHT22;11726;50.122;8.832;2023-10-13T06:55:10;16.50;99.90
23114;DHT22;11726;50.122;8.832;2023-10-13T06:57:44;16.60;99.90
23114;DHT22;11726;50.122;8.832;2023-10-13T07:00:11;16.70;99.90
23114;DHT22;11726;50.122;8.832;2023-10-13T07:02:46;16.70;99.90
23114;DHT22;11726;50.122;8.832;2023-10-13T07:05:19;16.70;99.90
23114;DHT22;11726;50.122;8.832;2023-10-13T07:07:46;16.80;99.90
23114;DHT22;11726;50.122;8.832;2023-10-13T07:10:14;16.80;99.90
23114;DHT22;11726;50.122;8.832;2023-10-13T07:12:43;16.90;99.90
23114;DHT22;11726;50.122;8.832;2023-10-13T07:15:10;17.00;99.90
23114;DHT22;11726;50.122;8.832;2023-10-13T07:17:38;17.00;99.90
23114;DHT22;11726;50.122;8.832;2023-10-13T07:20:07;17.10;99.90
23114;DHT22;11726;50.122;8.832;2023-10-13T07:22:50;17.20;99.90
23114;DHT22;11726;50.122;8.832;2023-10-13T07:25:30;17.30;99.90
23114;DHT22;11726;50.122;8.832;2023-10-13T07:28:00;17.30;99.90
23114;DHT22;11726;50.122;8.832;2023-10-13T07:30:27;17.40;99.90
23114;DHT22;11726;50.122;8.832;2023-10-13T07:32:54;17.50;99.90
23114;DHT22;11726;50.122;8.832;2023-10-13T07:35:26;17.50;99.90
23114;DHT22;11726;50.122;8.832;2023-10-13T07:37:53;17.60;99.90
23114;DHT22;11726;50.122;8.832;2023-10-13T07:40:21;17.60;99.90
23114;DHT22;11726;50.122;8.832;2023-10-13T07:42:54;17.60;99.90
23114;DHT22;11726;50.122;8.832;2023-10-13T07:45:27;17.70;99.90
23114;DHT22;11726;50.122;8.832;2023-10-13T07:48:04;17.70;99.90
23114;DHT22;11726;50.122;8.832;2023-10-13T07:50:59;17.80;99.90
23114;DHT22;11726;50.122;8.832;2023-10-13T07:53:42;17.80;99.90
23114;DHT22;11726;50.122;8.832;2023-10-13T07:56:10;17.90;99.90
23114;DHT22;11726;50.122;8.832;2023-10-13T07:58:40;17.90;99.90
23114;DHT22;11726;50.122;8.832;2023-10-13T08:01:30;18.00;99.90
23114;DHT22;11726;50.122;8.832;2023-10-13T08:03:59;18.10;99.90
23114;DHT22;11726;50.122;8.832;2023-10-13T08:06:34;18.30;99.90
23114;DHT22;11726;50.122;8.832;2023-10-13T08:09:04;18.30;99.90
23114;DHT22;11726;50.122;8.832;2023-10-13T08:11:36;18.60;99.90
23114;DHT22;11726;50.122;8.832;2023-10-13T08:14:04;18.70;99.90
23114;DHT22;11726;50.122;8.832;2023-10-13T08:17:08;18.90;99.90
23114;DHT22;11726;50.122;8.832;2023-10-13T08:19:38;19.00;99.90
23114;DHT22;11726;50.122;8.832;2023-10-13T08:22:14;19.10;99.90
23114;DHT22;11726;50.122;8.832;2023-10-13T08:24:44;19.20;99.90
23114;DHT22;11726;50.122;8.832;2023-10-13T08:27:12;19.30;99.90
23114;DHT22;11726;50.122;8.832;2023-10-13T08:29:58;19.40;99.90
23114;DHT22;11726;50.122;8.832;2023-10-13T08:32:29;19.60;99.90
23114;DHT22;11726;50.122;8.832;2023-10-13T08:34:58;19.60;99.90
23114;DHT22;11726;50.122;8.832;2023-10-13T08:37:29;19.70;99.90
23114;DHT22;11726;50.122;8.832;2023-10-13T08:40:00;19.80;99.90
23114;DHT22;11726;50.122;8.832;2023-10-13T08:42:53;20.00;99.90
23114;DHT22;11726;50.122;8.832;2023-10-13T08:45:44;20.20;99.90
23114;DHT22;11726;50.122;8.832;2023-10-13T08:48:12;20.20;99.90
23114;DHT22;11726;50.122;8.832;2023-10-13T08:50:50;20.40;99.90
23114;DHT22;11726;50.122;8.832;2023-10-13T08:53:25;20.50;99.90
23114;DHT22;11726;50.122;8.832;2023-10-13T08:58:36;20.50;99.90
23114;DHT22;11726;50.122;8.832;2023-10-13T09:01:33;20.70;99.90
23114;DHT22;11726;50.122;8.832;2023-10-13T09:04:19;20.80;99.90
23114;DHT22;11726;50.122;8.832;2023-10-13T09:06:51;20.90;99.90
23114;DHT22;11726;50.122;8.832;2023-10-13T09:09:27;21.00;99.90
23114;DHT22;11726;50.122;8.832;2023-10-13T09:12:15;21.00;99.90
23114;DHT22;11726;50.122;8.832;2023-10-13T09:14:53;21.00;99.90
23114;DHT22;11726;50.122;8.832;2023-10-13T09:17:32;21.10;99.90
23114;DHT22;11726;50.122;8.832;2023-10-13T09:20:09;21.00;99.90
23114;DHT22;11726;50.122;8.832;2023-10-13T09:22:55;21.00;99.90
23114;DHT22;11726;50.122;8.832;2023-10-13T09:25:36;21.00;99.90
23114;DHT22;11726;50.122;8.832;2023-10-13T09:28:11;20.90;99.90
23114;DHT22;11726;50.122;8.832;2023-10-13T09:30:51;21.00;99.90
23114;DHT22;11726;50.122;8.832;2023-10-13T09:33:24;21.00;99.90
23114;DHT22;11726;50.122;8.832;2023-10-13T09:36:05;21.30;99.90
23114;DHT22;11726;50.122;8.832;2023-10-13T09:38:36;21.40;99.90
23114;DHT22;11726;50.122;8.832;2023-10-13T09:41:07;21.50;99.90
23114;DHT22;11726;50.122;8.832;2023-10-13T09:43:45;21.50;99.90
23114;DHT22;11726;50.122;8.832;2023-10-13T09:46:18;21.50;99.90
23114;DHT22;11726;50.122;8.832;2023-10-13T09:48:47;21.50;99.90
23114;DHT22;11726;50.122;8.832;2023-10-13T09:51:16;21.70;99.90
23114;DHT22;11726;50.122;8.832;2023-10-13T09:53:56;21.70;99.90
23114;DHT22;11726;50.122;8.832;2023-10-13T09:56:58;21.60;99.90
23114;DHT22;11726;50.122;8.832;2023-10-13T09:59:35;21.60;99.90
23114;DHT22;11726;50.122;8.832;2023-10-13T10:02:09;21.50;99.90
23114;DHT22;11726;50.122;8.832;2023-10-13T10:04:36;21.60;99.90
23114;DHT22;11726;50.122;8.832;2023-10-13T10:07:27;21.70;99.90
23114;DHT22;11726;50.122;8.832;2023-10-13T10:10:01;21.70;99.90
23114;DHT22;11726;50.122;8.832;2023-10-13T10:12:47;22.00;99.90
23114;DHT22;11726;50.122;8.832;2023-10-13T10:15:28;22.30;99.90
23114;DHT22;11726;50.122;8.832;2023-10-13T10:18:02;22.50;99.90
23114;DHT22;11726;50.122;8.832;2023-10-13T10:20:34;22.60;99.90
23114;DHT22;11726;50.122;8.832;2023-10-13T10:23:26;22.70;99.90
23114;DHT22;11726;50.122;8.832;2023-10-13T10:25:55;22.80;99.90
23114;DHT22;11726;50.122;8.832;2023-10-13T10:28:36;22.70;99.90
23114;DHT22;11726;50.122;8.832;2023-10-13T10:31:06;22.70;99.90
23114;DHT22;11726;50.122;8.832;2023-10-13T10:33:39;22.90;99.90
23114;DHT22;11726;50.122;8.832;2023-10-13T10:36:07;23.00;99.90
23114;DHT22;11726;50.122;8.832;2023-10-13T10:38:56;23.10;99.90
23114;DHT22;11726;50.122;8.832;2023-10-13T10:41:30;23.10;99.90
23114;DHT22;11726;50.122;8.832;2023-10-13T10:44:15;23.10;99.90
23114;DHT22;11726;50.122;8.832;2023-10-13T10:46:43;23.10;99.90
23114;DHT22;11726;50.122;8.832;2023-10-13T10:49:26;23.10;99.90
23114;DHT22;11726;50.122;8.832;2023-10-13T10:52:00;23.10;99.90
23114;DHT22;11726;50.122;8.832;2023-10-13T10:54:32;23.10;99.90
23114;DHT22;11726;50.122;8.832;2023-10-13T10:57:00;23.10;99.90
23114;DHT22;11726;50.122;8.832;2023-10-13T10:59:44;23.20;99.90
23114;DHT22;11726;50.122;8.832;2023-10-13T11:02:11;23.20;99.90
23114;DHT22;11726;50.122;8.832;2023-10-13T11:04:42;23.30;99.90
23114;DHT22;11726;50.122;8.832;2023-10-13T11:07:25;23.20;99.90
23114;DHT22;11726;50.122;8.832;2023-10-13T11:09:52;23.30;99.90
23114;DHT22;11726;50.122;8.832;2023-10-13T11:12:56;23.30;99.90
23114;DHT22;11726;50.122;8.832;2023-10-13T11:15:44;23.40;99.90
23114;DHT22;11726;50.122;8.832;2023-10-13T11:18:11;23.90;99.90
23114;DHT22;11726;50.122;8.832;2023-10-13T11:20:48;24.20;99.90
23114;DHT22;11726;50.122;8.832;2023-10-13T11:23:21;24.60;99.90
23114;DHT22;11726;50.122;8.832;2023-10-13T11:25:59;24.80;99.90
23114;DHT22;11726;50.122;8.832;2023-10-13T11:28:26;24.70;99.90
23114;DHT22;11726;50.122;8.832;2023-10-13T11:30:58;24.70;99.90
23114;DHT22;11726;50.122;8.832;2023-10-13T11:33:27;24.70;99.90
23114;DHT22;11726;50.122;8.832;2023-10-13T11:35:56;24.80;99.90
23114;DHT22;11726;50.122;8.832;2023-10-13T11:38:31;24.80;99.90
23114;DHT22;11726;50.122;8.832;2023-10-13T11:41:07;24.70;99.90
23114;DHT22;11726;50.122;8.832;2023-10-13T11:43:36;24.50;99.90
23114;DHT22;11726;50.122;8.832;2023-10-13T11:46:16;24.60;99.90
23114;DHT22;11726;50.122;8.832;2023-10-13T11:48:45;24.70;99.90
23114;DHT22;11726;50.122;8.832;2023-10-13T11:51:14;24.80;99.90
23114;DHT22;11726;50.122;8.832;2023-10-13T11:53:51;25.00;99.90
23114;DHT22;11726;50.122;8.832;2023-10-13T11:56:22;25.10;99.90
23114;DHT22;11726;50.122;8.832;2023-10-13T11:58:49;25.40;99.90
23114;DHT22;11726;50.122;8.832;2023-10-13T12:01:16;25.40;99.90
23114;DHT22;11726;50.122;8.832;2023-10-13T12:04:08;25.60;99.90
23114;DHT22;11726;50.122;8.832;2023-10-13T12:06:54;25.70;99.90
23114;DHT22;11726;50.122;8.832;2023-10-13T12:09:51;25.80;99.90
23114;DHT22;11726;50.122;8.832;2023-10-13T12:12:25;26.00;99.90
23114;DHT22;11726;50.122;8.832;2023-10-13T12:14:52;26.00;99.90
23114;DHT22;11726;50.122;8.832;2023-10-13T12:17:23;25.90;99.90
23114;DHT22;11726;50.122;8.832;2023-10-13T12:19:55;25.70;99.90
23114;DHT22;11726;50.122;8.832;2023-10-13T12:22:23;25.80;99.90
23114;DHT22;11726;50.122;8.832;2023-10-13T12:25:03;25.90;99.90
23114;DHT22;11726;50.122;8.832;2023-10-13T12:27:48;26.00;99.90
23114;DHT22;11726;50.122;8.832;2023-10-13T12:30:17;26.10;99.90
23114;DHT22;11726;50.122;8.832;2023-10-13T12:32:50;26.10;99.90
23114;DHT22;11726;50.122;8.832;2023-10-13T12:35:35;26.30;99.90
23114;DHT22;11726;50.122;8.832;2023-10-13T12:38:11;26.60;99.90
23114;DHT22;11726;50.122;8.832;2023-10-13T12:41:06;26.60;99.90
23114;DHT22;11726;50.122;8.832;2023-10-13T12:44:02;26.40;99.90
23114;DHT22;11726;50.122;8.832;2023-10-13T12:46:49;26.30;99.90
23114;DHT22;11726;50.122;8.832;2023-10-13T12:49:35;26.30;99.90
23114;DHT22;11726;50.122;8.832;2023-10-13T12:52:14;26.10;99.90
23114;DHT22;11726;50.122;8.832;2023-10-13T12:54:52;26.20;99.90
23114;DHT22;11726;50.122;8.832;2023-10-13T12:57:26;26.50;99.90
23114;DHT22;11726;50.122;8.832;2023-10-13T12:59:54;26.40;99.90
23114;DHT22;11726;50.122;8.832;2023-10-13T13:02:25;26.20;99.90
23114;DHT22;11726;50.122;8.832;2023-10-13T13:04:53;25.90;99.90
23114;DHT22;11726;50.122;8.832;2023-10-13T13:07:40;25.60;99.90
23114;DHT22;11726;50.122;8.832;2023-10-13T13:10:19;25.50;99.90
23114;DHT22;11726;50.122;8.832;2023-10-13T13:12:47;25.40;99.90
23114;DHT22;11726;50.122;8.832;2023-10-13T13:15:14;25.30;99.90
23114;DHT22;11726;50.122;8.832;2023-10-13T13:17:41;25.40;99.90
23114;DHT22;11726;50.122;8.832;2023-10-13T13:20:09;25.40;99.90
23114;DHT22;11726;50.122;8.832;2023-10-13T13:22:53;25.50;99.90
23114;DHT22;11726;50.122;8.832;2023-10-13T13:25:21;25.50;99.90
23114;DHT22;11726;50.122;8.832;2023-10-13T13:27:57;25.70;99.90
23114;DHT22;11726;50.122;8.832;2023-10-13T13:30:25;26.40;99.90
23114;DHT22;11726;50.122;8.832;2023-10-13T13:32:58;27.50;99.30
23114;DHT22;11726;50.122;8.832;2023-10-13T13:35:30;28.50;97.20
23114;DHT22;11726;50.122;8.832;2023-10-13T13:38:02;28.40;93.30
23114;DHT22;11726;50.122;8.832;2023-10-13T13:40:52;28.00;95.40
23114;DHT22;11726;50.122;8.832;2023-10-13T13:43:23;27.40;94.20
23114;DHT22;11726;50.122;8.832;2023-10-13T13:46:08;27.10;95.70
23114;DHT22;11726;50.122;8.832;2023-10-13T13:48:43;27.00;96.60
23114;DHT22;11726;50.122;8.832;2023-10-13T13:51:14;27.70;96.30
23114;DHT22;11726;50.122;8.832;2023-10-13T13:53:43;28.20;93.20
23114;DHT22;11726;50.122;8.832;2023-10-13T13:56:12;28.50;94.50
23114;DHT22;11726;50.122;8.832;2023-10-13T13:58:45;28.90;93.80
23114;DHT22;11726;50.122;8.832;2023-10-13T14:01:12;28.80;88.90
23114;DHT22;11726;50.122;8.832;2023-10-13T14:03:41;28.60;89.80
23114;DHT22;11726;50.122;8.832;2023-10-13T14:06:12;28.40;88.10
23114;DHT22;11726;50.122;8.832;2023-10-13T14:08:47;28.40;87.80
23114;DHT22;11726;50.122;8.832;2023-10-13T14:11:18;28.50;86.90
23114;DHT22;11726;50.122;8.832;2023-10-13T14:14:07;28.40;85.60
23114;DHT22;11726;50.122;8.832;2023-10-13T14:16:42;28.30;85.20
23114;DHT22;11726;50.122;8.832;2023-10-13T14:19:12;28.40;87.50
23114;DHT22;11726;50.122;8.832;2023-10-13T14:21:39;28.30;84.00
23114;DHT22;11726;50.122;8.832;2023-10-13T14:24:05;28.30;84.70
23114;DHT22;11726;50.122;8.832;2023-10-13T14:26:43;28.40;84.20
23114;DHT22;11726;50.122;8.832;2023-10-13T14:29:10;28.80;85.50
23114;DHT22;11726;50.122;8.832;2023-10-13T14:31:40;28.90;85.40
23114;DHT22;11726;50.122;8.832;2023-10-13T14:34:08;28.90;83.70
23114;DHT22;11726;50.122;8.832;2023-10-13T14:36:35;28.90;82.50
23114;DHT22;11726;50.122;8.832;2023-10-13T14:39:05;28.90;83.70
23114;DHT22;11726;50.122;8.832;2023-10-13T14:41:36;28.90;82.50
23114;DHT22;11726;50.122;8.832;2023-10-13T14:44:04;28.60;85.00
23114;DHT22;11726;50.122;8.832;2023-10-13T14:46:34;28.50;84.90
23114;DHT22;11726;50.122;8.832;2023-10-13T14:49:07;28.50;87.20
23114;DHT22;11726;50.122;8.832;2023-10-13T14:51:34;28.10;87.40
23114;DHT22;11726;50.122;8.832;2023-10-13T14:54:06;27.90;87.60
23114;DHT22;11726;50.122;8.832;2023-10-13T14:56:32;27.50;85.20
23114;DHT22;11726;50.122;8.832;2023-10-13T14:58:59;27.40;90.60
23114;DHT22;11726;50.122;8.832;2023-10-13T15:01:26;27.20;90.70
23114;DHT22;11726;50.122;8.832;2023-10-13T15:03:54;27.20;87.70
23114;DHT22;11726;50.122;8.832;2023-10-13T15:06:24;27.00;90.20
23114;DHT22;11726;50.122;8.832;2023-10-13T15:08:57;26.90;91.00
23114;DHT22;11726;50.122;8.832;2023-10-13T15:11:25;27.10;85.50
23114;DHT22;11726;50.122;8.832;2023-10-13T15:14:14;27.30;84.00
23114;DHT22;11726;50.122;8.832;2023-10-13T15:16:41;27.40;82.80
23114;DHT22;11726;50.122;8.832;2023-10-13T15:19:10;27.40;84.10
23114;DHT22;11726;50.122;8.832;2023-10-13T15:21:37;27.30;86.10
23114;DHT22;11726;50.122;8.832;2023-10-13T15:24:05;26.80;90.70
23114;DHT22;11726;50.122;8.832;2023-10-13T15:26:44;26.40;91.40
23114;DHT22;11726;50.122;8.832;2023-10-13T15:29:18;26.00;93.30
23114;DHT22;11726;50.122;8.832;2023-10-13T15:31:52;25.80;94.70
23114;DHT22;11726;50.122;8.832;2023-10-13T15:34:28;25.60;95.70
23114;DHT22;11726;50.122;8.832;2023-10-13T15:36:56;25.20;97.80
23114;DHT22;11726;50.122;8.832;2023-10-13T15:39:23;25.00;98.60
23114;DHT22;11726;50.122;8.832;2023-10-13T15:41:51;25.00;99.90
23114;DHT22;11726;50.122;8.832;2023-10-13T15:44:20;24.70;99.90
23114;DHT22;11726;50.122;8.832;2023-10-13T15:46:55;24.60;99.90
23114;DHT22;11726;50.122;8.832;2023-10-13T15:49:25;24.40;99.90
23114;DHT22;11726;50.122;8.832;2023-10-13T15:51:54;24.10;99.90
23114;DHT22;11726;50.122;8.832;2023-10-13T15:54:24;24.10;99.90
23114;DHT22;11726;50.122;8.832;2023-10-13T15:56:51;24.00;99.90
23114;DHT22;11726;50.122;8.832;2023-10-13T15:59:17;24.00;99.90
23114;DHT22;11726;50.122;8.832;2023-10-13T16:01:44;23.70;99.90
23114;DHT22;11726;50.122;8.832;2023-10-13T16:04:13;23.70;99.90
23114;DHT22;11726;50.122;8.832;2023-10-13T16:06:42;23.50;99.90
23114;DHT22;11726;50.122;8.832;2023-10-13T16:09:13;23.30;99.90
23114;DHT22;11726;50.122;8.832;2023-10-13T16:11:50;23.30;99.90
23114;DHT22;11726;50.122;8.832;2023-10-13T16:14:18;23.20;99.90
23114;DHT22;11726;50.122;8.832;2023-10-13T16:16:47;23.20;99.90
23114;DHT22;11726;50.122;8.832;2023-10-13T16:19:15;23.10;99.90
23114;DHT22;11726;50.122;8.832;2023-10-13T16:21:46;23.10;99.90
23114;DHT22;11726;50.122;8.832;2023-10-13T16:24:13;23.00;99.90
23114;DHT22;11726;50.122;8.832;2023-10-13T16:26:48;23.00;99.90